Time;durP1;ratioP1;P1;durP2;ratioP2;P2;SDS_P1;SDS_P2;PMS_P1;PMS_P2;Temp;Humidity;BMP_temperature;BMP_pressure;BME280_temperature;BME280_humidity;BME280_pressure;Samples;Min_cycle;Max_cycle;Signal;HPM_P1;HPM_P2
2022/09/09 00:00:20;;;;;;;11.85;5.15;;;15.20;99.90;;;;;;4149730;28;20045;-83
2022/09/09 00:02:24;;;;;;;8.32;5.35;;;15.20;99.90;;;;;;4149534;28;20092;-83
2022/09/09 00:04:29;;;;;;;9.75;5.30;;;15.20;99.90;;;;;;4148903;28;20049;-83
2022/09/09 00:06:54;;;;;;;13.32;5.63;;;15.10;99.90;;;;;;4148355;28;20045;-83
2022/09/09 00:09:15;;;;;;;8.50;5.50;;;15.10;99.90;;;;;;4148603;28;20042;-83
2022/09/09 00:11:26;;;;;;;9.15;5.70;;;15.10;99.90;;;;;;4147741;28;20042;-83
2022/09/09 00:13:53;;;;;;;12.00;5.35;;;15.10;99.90;;;;;;4149310;28;20077;-83
2022/09/09 00:16:12;;;;;;;12.05;5.47;;;15.10;99.90;;;;;;4142306;28;20093;-83
2022/09/09 00:18:18;;;;;;;8.18;4.70;;;15.00;99.90;;;;;;4131496;28;20057;-83
2022/09/09 00:20:30;;;;;;;11.35;5.68;;;15.00;99.90;;;;;;4131319;28;20129;-83
2022/09/09 00:22:32;;;;;;;9.75;5.13;;;15.00;99.90;;;;;;4151963;28;20399;-83
2022/09/09 00:24:41;;;;;;;10.02;4.60;;;15.00;99.90;;;;;;4152200;28;20074;-83
2022/09/09 00:26:50;;;;;;;9.95;4.75;;;15.00;99.90;;;;;;4152195;28;20050;-84
2022/09/09 00:28:58;;;;;;;10.05;4.88;;;14.90;99.90;;;;;;4150888;28;20593;-83
2022/09/09 00:31:12;;;;;;;10.95;5.57;;;14.90;99.90;;;;;;4151820;28;20049;-83
2022/09/09 00:33:15;;;;;;;9.38;4.93;;;15.00;99.90;;;;;;4152025;28;20091;-83
2022/09/09 00:35:23;;;;;;;11.38;5.03;;;15.00;99.90;;;;;;4151724;28;20041;-83
2022/09/09 00:37:31;;;;;;;10.85;5.30;;;15.00;99.90;;;;;;4165424;28;20046;-83
2022/09/09 00:39:37;;;;;;;11.38;5.47;;;14.90;99.90;;;;;;4151045;28;20050;-83
2022/09/09 00:42:00;;;;;;;12.20;4.95;;;14.90;99.90;;;;;;4168342;28;20053;-83
2022/09/09 00:44:24;;;;;;;10.50;4.88;;;14.90;99.90;;;;;;4168630;28;20526;-83
2022/09/09 00:47:03;;;;;;;11.05;4.85;;;14.90;99.90;;;;;;4167025;28;20080;-84
2022/09/09 00:49:29;;;;;;;12.88;5.53;;;14.90;99.90;;;;;;4165956;28;20406;-83
2022/09/09 00:51:52;;;;;;;10.80;5.55;;;14.80;99.90;;;;;;4147809;28;20439;-83
2022/09/09 00:54:10;;;;;;;8.10;4.90;;;14.80;99.90;;;;;;4150418;28;20120;-83
2022/09/09 00:56:23;;;;;;;13.18;5.22;;;14.80;99.90;;;;;;4150395;28;20046;-83
2022/09/09 00:58:24;;;;;;;10.60;5.63;;;14.70;99.90;;;;;;4150472;28;20040;-83
2022/09/09 01:00:35;;;;;;;10.70;5.07;;;14.70;99.90;;;;;;4149896;28;20510;-83
2022/09/09 01:02:48;;;;;;;13.18;4.78;;;14.80;99.90;;;;;;4133058;28;20061;-83
2022/09/09 01:04:49;;;;;;;11.88;4.97;;;14.70;99.90;;;;;;4133303;28;20058;-83
2022/09/09 01:06:55;;;;;;;6.60;4.32;;;14.70;99.90;;;;;;4132601;28;20081;-82
2022/09/09 01:09:22;;;;;;;9.45;4.85;;;14.50;99.90;;;;;;4133423;28;20046;-83
2022/09/09 01:11:32;;;;;;;9.88;4.80;;;14.70;99.90;;;;;;4132857;28;20058;-83
2022/09/09 01:13:35;;;;;;;10.73;4.57;;;14.70;99.90;;;;;;4132803;28;20062;-83
2022/09/09 01:15:38;;;;;;;13.55;5.10;;;14.70;99.90;;;;;;4132879;28;20050;-83
2022/09/09 01:18:09;;;;;;;9.32;5.03;;;14.70;99.90;;;;;;4150287;28;20141;-83
2022/09/09 01:20:17;;;;;;;10.20;4.15;;;14.70;99.90;;;;;;4132842;28;20038;-83
2022/09/09 01:22:51;;;;;;;9.38;4.32;;;14.70;99.90;;;;;;4148372;28;20089;-83
2022/09/09 01:25:11;;;;;;;7.30;4.30;;;14.70;99.90;;;;;;4132416;28;20057;-83
2022/09/09 01:27:13;;;;;;;9.55;4.35;;;14.60;99.90;;;;;;4150920;28;20103;-83
2022/09/09 01:29:18;;;;;;;7.78;3.67;;;14.60;99.90;;;;;;4133620;28;20532;-83
2022/09/09 01:31:35;;;;;;;7.93;3.88;;;14.60;99.90;;;;;;4134534;28;20504;-83
2022/09/09 01:33:36;;;;;;;6.15;3.53;;;14.60;99.90;;;;;;4149973;28;20054;-83
2022/09/09 01:36:11;;;;;;;11.75;4.28;;;14.60;99.90;;;;;;4150001;28;20048;-83
2022/09/09 01:38:13;;;;;;;7.60;3.88;;;14.60;99.90;;;;;;4167788;28;20172;-83
2022/09/09 01:40:14;;;;;;;8.50;3.83;;;14.60;99.90;;;;;;4150338;28;20100;-84
2022/09/09 01:42:16;;;;;;;9.80;4.25;;;14.60;99.90;;;;;;4167528;28;20487;-83
2022/09/09 01:44:18;;;;;;;6.53;4.20;;;14.50;99.90;;;;;;4141623;28;20126;-83
2022/09/09 01:46:21;;;;;;;9.20;3.92;;;14.50;99.90;;;;;;4151853;28;20068;-83
2022/09/09 01:48:24;;;;;;;6.10;3.17;;;14.50;99.90;;;;;;4151459;28;20041;-83
2022/09/09 01:50:25;;;;;;;7.85;4.05;;;14.50;99.90;;;;;;4151863;28;20164;-83
2022/09/09 01:52:26;;;;;;;13.68;4.55;;;14.50;99.90;;;;;;4151111;28;20046;-83
2022/09/09 01:54:31;;;;;;;8.13;3.67;;;14.50;99.90;;;;;;4151448;28;20046;-83
2022/09/09 01:56:49;;;;;;;7.18;3.92;;;14.50;99.90;;;;;;4152162;28;20045;-83
2022/09/09 01:58:56;;;;;;;6.85;3.85;;;14.50;99.90;;;;;;4152268;28;20050;-82
2022/09/09 02:01:23;;;;;;;6.20;3.92;;;14.50;99.90;;;;;;4153375;28;20148;-82
2022/09/09 02:03:33;;;;;;;7.82;4.22;;;14.50;99.90;;;;;;4152111;28;20046;-83
2022/09/09 02:05:39;;;;;;;8.98;4.30;;;14.50;99.90;;;;;;4153319;28;20111;-83
2022/09/09 02:07:42;;;;;;;11.07;4.45;;;14.40;99.90;;;;;;4152385;28;20038;-82
2022/09/09 02:09:46;;;;;;;8.77;4.38;;;14.50;99.90;;;;;;4152027;28;20046;-83
2022/09/09 02:11:51;;;;;;;8.10;4.20;;;14.40;99.90;;;;;;4151830;28;20038;-83
2022/09/09 02:14:01;;;;;;;8.68;4.32;;;14.40;99.90;;;;;;4134964;28;20065;-83
2022/09/09 02:16:26;;;;;;;8.15;4.10;;;14.40;99.90;;;;;;4151593;28;20057;-83
2022/09/09 02:18:41;;;;;;;6.95;3.85;;;14.40;99.90;;;;;;4151172;28;20054;-83
2022/09/09 02:20:46;;;;;;;9.80;4.25;;;14.40;99.90;;;;;;4156017;28;20406;-83
2022/09/09 02:22:50;;;;;;;15.02;4.45;;;14.40;99.90;;;;;;4166775;28;20148;-83
2022/09/09 02:24:56;;;;;;;8.13;4.60;;;14.50;99.90;;;;;;4166245;28;20049;-83
2022/09/09 02:26:58;;;;;;;10.40;4.93;;;14.50;99.90;;;;;;4148435;28;20125;-83
2022/09/09 02:29:03;;;;;;;14.10;5.57;;;14.50;99.90;;;;;;4164717;28;20054;-83
2022/09/09 02:31:05;;;;;;;15.38;5.05;;;14.50;99.90;;;;;;4165390;28;20380;-83
2022/09/09 02:33:10;;;;;;;10.98;5.65;;;14.50;99.90;;;;;;4165217;28;20399;-83
2022/09/09 02:35:14;;;;;;;10.77;5.45;;;14.50;99.90;;;;;;4165372;28;20049;-83
2022/09/09 02:37:19;;;;;;;9.48;5.72;;;14.50;99.90;;;;;;4164642;28;20092;-83
2022/09/09 02:39:19;;;;;;;9.70;5.22;;;14.50;99.90;;;;;;4164758;28;20049;-83
2022/09/09 02:41:49;;;;;;;12.77;6.18;;;14.50;99.90;;;;;;4165261;28;20052;-83
2022/09/09 02:43:49;;;;;;;12.43;5.65;;;14.50;99.90;;;;;;4125840;28;20060;-83
2022/09/09 02:46:18;;;;;;;11.38;5.03;;;14.50;99.90;;;;;;4132435;28;20089;-83
2022/09/09 02:48:19;;;;;;;;;;;14.50;99.90;;;;;;4150026;28;20480;-83
2022/09/09 02:50:26;;;;;;;10.55;5.40;;;14.40;99.90;;;;;;4149969;28;19921;-83
2022/09/09 02:52:45;;;;;;;11.88;5.18;;;14.40;99.90;;;;;;4132607;28;20570;-83
2022/09/09 02:54:47;;;;;;;10.10;5.68;;;14.40;99.90;;;;;;4132531;28;20050;-83
2022/09/09 02:56:55;;;;;;;13.38;5.30;;;14.40;99.90;;;;;;4150222;28;20056;-83
2022/09/09 02:58:56;;;;;;;11.80;6.43;;;14.40;99.90;;;;;;4150057;28;20049;-83
2022/09/09 03:00:57;;;;;;;10.45;5.43;;;14.40;99.90;;;;;;4149787;28;20096;-83
2022/09/09 03:02:59;;;;;;;17.73;5.80;;;14.50;99.90;;;;;;4149485;28;20053;-83
2022/09/09 03:05:00;;;;;;;9.23;5.25;;;14.50;99.90;;;;;;4149567;28;20046;-83
2022/09/09 03:07:00;;;;;;;14.80;5.35;;;14.50;99.90;;;;;;4150168;28;20380;-83
2022/09/09 03:09:02;;;;;;;9.20;5.25;;;14.50;99.90;;;;;;4150192;28;20052;-83
2022/09/09 03:11:03;;;;;;;10.82;5.95;;;14.50;99.90;;;;;;4132942;28;20050;-83
2022/09/09 03:13:05;;;;;;;12.48;5.68;;;14.50;99.90;;;;;;4132362;28;20137;-84
2022/09/09 03:15:06;;;;;;;10.32;5.15;;;14.50;99.90;;;;;;4149596;28;20045;-83
2022/09/09 03:17:09;;;;;;;10.18;5.63;;;14.50;99.90;;;;;;4132821;28;20154;-82
2022/09/09 03:19:10;;;;;;;8.85;4.82;;;14.60;99.90;;;;;;4132388;28;20061;-82
2022/09/09 03:21:11;;;;;;;9.50;5.00;;;14.50;99.90;;;;;;4149518;28;20057;-83
2022/09/09 03:23:13;;;;;;;8.38;4.63;;;14.60;99.90;;;;;;4149956;28;20404;-83
2022/09/09 03:25:13;;;;;;;11.52;4.75;;;14.60;99.90;;;;;;4149628;28;20061;-83
2022/09/09 03:27:14;;;;;;;8.93;5.07;;;14.60;99.90;;;;;;4132476;28;20571;-83
2022/09/09 03:29:15;;;;;;;7.05;4.30;;;14.70;99.90;;;;;;4131342;28;20053;-83
2022/09/09 03:31:16;;;;;;;10.93;4.57;;;14.60;99.90;;;;;;4150010;28;20589;-83
2022/09/09 03:33:17;;;;;;;11.07;5.13;;;14.70;99.90;;;;;;4149630;28;20125;-83
2022/09/09 03:35:19;;;;;;;7.82;4.53;;;14.60;99.90;;;;;;4149742;28;20065;-83
2022/09/09 03:37:20;;;;;;;11.73;4.85;;;14.70;99.90;;;;;;4149049;28;20113;-83
2022/09/09 03:39:20;;;;;;;11.93;4.38;;;14.70;99.90;;;;;;4132061;28;20058;-83
2022/09/09 03:41:23;;;;;;;6.53;3.60;;;14.70;99.90;;;;;;4132367;28;20558;-83
2022/09/09 03:43:25;;;;;;;8.55;4.13;;;14.70;99.90;;;;;;4131773;28;20121;-83
2022/09/09 03:45:25;;;;;;;5.30;3.35;;;14.70;99.90;;;;;;4131553;28;20554;-83
2022/09/09 03:47:26;;;;;;;7.03;3.63;;;14.70;99.90;;;;;;4149112;28;20053;-83
2022/09/09 03:49:30;;;;;;;12.95;3.75;;;14.70;99.90;;;;;;4131112;28;20058;-83
2022/09/09 03:51:31;;;;;;;8.43;3.20;;;14.70;99.90;;;;;;4149284;28;20045;-83
2022/09/09 03:53:33;;;;;;;6.13;3.30;;;14.80;99.90;;;;;;4149526;28;20046;-83
2022/09/09 03:55:33;;;;;;;6.07;3.40;;;14.70;99.90;;;;;;4131140;28;20163;-83
2022/09/09 03:57:35;;;;;;;6.50;3.20;;;14.70;99.90;;;;;;4131602;28;20479;-82
2022/09/09 03:59:36;;;;;;;7.85;3.30;;;14.70;99.90;;;;;;4149265;28;20042;-83
2022/09/09 04:01:37;;;;;;;6.07;2.90;;;14.70;99.90;;;;;;4149442;28;20042;-83
2022/09/09 04:03:37;;;;;;;11.50;3.58;;;14.70;99.90;;;;;;4131533;28;20125;-83
2022/09/09 04:05:42;;;;;;;4.95;2.47;;;14.70;99.90;;;;;;4149412;28;20389;-83
2022/09/09 04:07:42;;;;;;;9.43;2.38;;;14.80;99.90;;;;;;4149458;28;20117;-83
2022/09/09 04:09:43;;;;;;;7.25;2.30;;;14.80;99.90;;;;;;4147616;28;20437;-83
2022/09/09 04:11:45;;;;;;;3.40;1.90;;;14.80;99.90;;;;;;4148644;28;20089;-83
2022/09/09 04:13:45;;;;;;;6.78;1.80;;;14.80;99.90;;;;;;4131186;28;20133;-83
2022/09/09 04:15:58;;;;;;;7.68;2.05;;;14.80;99.90;;;;;;4148868;28;20046;-83
2022/09/09 04:17:58;;;;;;;3.08;1.70;;;14.90;99.90;;;;;;4149389;28;20045;-83
2022/09/09 04:20:00;;;;;;;5.60;1.70;;;14.90;99.90;;;;;;4149265;28;20467;-83
2022/09/09 04:22:00;;;;;;;4.47;1.90;;;14.90;99.90;;;;;;4149455;28;20057;-83
2022/09/09 04:24:01;;;;;;;7.45;1.90;;;14.90;99.90;;;;;;4148959;28;20042;-84
2022/09/09 04:26:03;;;;;;;6.85;2.35;;;14.90;99.90;;;;;;4130830;28;20050;-83
2022/09/09 04:28:04;;;;;;;4.60;1.50;;;14.90;99.90;;;;;;4147673;28;20053;-83
2022/09/09 04:30:06;;;;;;;5.07;1.88;;;15.00;99.90;;;;;;4148582;28;20050;-83
2022/09/09 04:32:07;;;;;;;3.63;1.90;;;15.00;99.90;;;;;;4131550;28;20073;-83
2022/09/09 04:34:09;;;;;;;6.28;2.17;;;15.00;99.90;;;;;;4148913;28;20046;-83
2022/09/09 04:36:09;;;;;;;12.45;1.80;;;14.90;99.90;;;;;;4148736;28;20073;-83
2022/09/09 04:38:10;;;;;;;3.55;1.42;;;15.00;99.90;;;;;;4131014;28;20063;-83
2022/09/09 04:40:12;;;;;;;6.22;1.95;;;14.90;99.90;;;;;;4149036;28;20057;-83
2022/09/09 04:42:12;;;;;;;2.63;1.50;;;15.00;99.90;;;;;;4149212;28;20072;-83
2022/09/09 04:44:13;;;;;;;6.38;2.05;;;15.00;99.90;;;;;;4148452;28;20069;-83
2022/09/09 04:46:15;;;;;;;5.60;2.45;;;15.00;99.90;;;;;;4148845;28;20061;-83
2022/09/09 04:48:15;;;;;;;3.67;1.38;;;15.00;99.90;;;;;;4149303;28;20044;-83
2022/09/09 04:50:16;;;;;;;6.78;2.25;;;14.90;99.90;;;;;;4148835;28;20046;-83
2022/09/09 04:52:18;;;;;;;13.60;2.17;;;15.00;99.90;;;;;;4148981;28;20431;-83
2022/09/09 04:54:18;;;;;;;3.33;1.90;;;15.00;99.90;;;;;;4148775;28;20041;-83
2022/09/09 04:56:20;;;;;;;4.57;1.95;;;15.00;99.90;;;;;;4146858;28;20042;-83
2022/09/09 04:58:22;;;;;;;3.38;1.73;;;15.00;99.90;;;;;;4147347;28;20364;-83
2022/09/09 05:00:23;;;;;;;3.75;1.90;;;15.00;99.90;;;;;;4146920;28;20057;-83
2022/09/09 05:02:24;;;;;;;6.40;2.17;;;15.00;99.90;;;;;;4148733;28;20071;-83
2022/09/09 05:04:24;;;;;;;5.20;2.90;;;14.90;99.90;;;;;;4131169;28;20054;-83
2022/09/09 05:06:25;;;;;;;4.75;2.40;;;14.90;99.90;;;;;;4148415;28;20085;-83
2022/09/09 05:08:26;;;;;;;6.20;2.60;;;14.90;99.90;;;;;;4150342;28;20432;-83
2022/09/09 05:10:26;;;;;;;4.80;2.10;;;14.90;99.90;;;;;;4118834;28;20069;-82
2022/09/09 05:12:28;;;;;;;6.47;2.55;;;14.90;99.90;;;;;;4133843;28;20057;-82
2022/09/09 05:14:29;;;;;;;5.40;2.30;;;14.90;99.90;;;;;;4134094;28;20439;-83
2022/09/09 05:16:31;;;;;;;6.90;2.60;;;14.90;99.90;;;;;;4151473;28;20117;-83
2022/09/09 05:18:32;;;;;;;7.75;2.70;;;14.90;99.90;;;;;;4135891;28;20740;-83
2022/09/09 05:20:32;;;;;;;5.82;2.60;;;14.90;99.90;;;;;;4136723;28;20053;-82
2022/09/09 05:22:33;;;;;;;8.57;3.05;;;14.80;99.90;;;;;;4151485;28;20046;-83
2022/09/09 05:24:35;;;;;;;7.70;3.20;;;14.90;99.90;;;;;;4138059;28;20050;-82
2022/09/09 05:26:37;;;;;;;6.45;2.85;;;14.80;99.90;;;;;;4135479;28;20061;-83
2022/09/09 05:28:38;;;;;;;9.98;3.17;;;14.80;99.90;;;;;;4135314;28;20050;-83
2022/09/09 05:30:39;;;;;;;7.65;3.60;;;14.80;99.90;;;;;;4134955;28;20047;-83
2022/09/09 05:32:40;;;;;;;4.90;2.97;;;14.80;99.90;;;;;;4140484;28;20072;-83
2022/09/09 05:34:40;;;;;;;10.70;3.70;;;14.80;99.90;;;;;;4151488;28;20082;-83
2022/09/09 05:36:41;;;;;;;6.68;3.42;;;14.80;99.90;;;;;;4151388;28;20053;-83
2022/09/09 05:38:42;;;;;;;9.20;3.75;;;14.70;99.90;;;;;;4133528;28;20050;-83
2022/09/09 05:40:49;;;;;;;6.63;3.53;;;14.80;99.90;;;;;;4151054;28;20112;-83
2022/09/09 05:42:50;;;;;;;7.72;3.85;;;14.70;99.90;;;;;;4150689;28;20046;-83
2022/09/09 05:44:54;;;;;;;8.70;4.13;;;14.70;99.90;;;;;;4151186;28;20092;-82
2022/09/09 05:46:54;;;;;;;7.72;4.10;;;14.70;99.90;;;;;;4151021;28;20046;-83
2022/09/09 05:48:55;;;;;;;9.30;4.22;;;14.70;99.90;;;;;;4151087;28;20053;-86
2022/09/09 05:50:56;;;;;;;7.80;3.72;;;14.70;99.90;;;;;;4151043;28;20415;-85
2022/09/09 05:52:57;;;;;;;8.77;3.88;;;14.50;99.90;;;;;;4151440;28;20447;-85
2022/09/09 05:54:59;;;;;;;10.35;4.85;;;14.70;99.90;;;;;;4147308;28;20125;-86
2022/09/09 05:57:00;;;;;;;9.85;4.55;;;14.70;99.90;;;;;;4167842;28;20045;-85
2022/09/09 05:59:00;;;;;;;9.82;4.28;;;14.80;99.90;;;;;;4136368;28;20086;-85
2022/09/09 06:01:16;;;;;;;9.65;4.53;;;14.80;99.90;;;;;;4134008;28;20054;-85
2022/09/09 06:03:17;;;;;;;8.73;4.70;;;14.70;99.90;;;;;;4134035;28;20050;-85
2022/09/09 06:05:17;;;;;;;8.25;4.57;;;14.70;99.90;;;;;;4150116;28;20046;-86
2022/09/09 06:07:19;;;;;;;10.02;4.57;;;14.70;99.90;;;;;;4142983;28;20049;-85
2022/09/09 06:09:20;;;;;;;8.80;4.68;;;14.80;99.90;;;;;;4117536;28;20086;-86
2022/09/09 06:11:24;;;;;;;7.40;3.97;;;14.80;99.90;;;;;;4147168;28;20056;-86
2022/09/09 06:13:25;;;;;;;8.82;4.68;;;14.80;99.90;;;;;;4151493;28;20038;-86
2022/09/09 06:15:26;;;;;;;8.88;4.55;;;14.80;99.90;;;;;;4133049;28;20089;-85
2022/09/09 06:17:27;;;;;;;11.10;5.00;;;14.80;99.90;;;;;;4139943;28;20069;-85
2022/09/09 06:19:28;;;;;;;8.43;4.50;;;14.80;99.90;;;;;;4155043;28;20045;-85
2022/09/09 06:21:32;;;;;;;9.07;5.35;;;14.80;99.90;;;;;;4133758;28;20464;-84
2022/09/09 06:23:35;;;;;;;9.68;4.97;;;14.80;99.90;;;;;;4161845;28;20050;-85
2022/09/09 06:25:39;;;;;;;7.90;4.43;;;14.80;99.90;;;;;;4167390;28;20465;-85
2022/09/09 06:27:41;;;;;;;11.38;4.82;;;14.90;99.90;;;;;;4149843;28;20054;-85
2022/09/09 06:29:42;;;;;;;12.23;5.07;;;14.90;99.90;;;;;;4154341;28;20042;-85
2022/09/09 06:31:43;;;;;;;8.88;4.90;;;14.90;99.90;;;;;;4150364;28;20121;-85
2022/09/09 06:33:44;;;;;;;9.32;4.50;;;14.90;99.90;;;;;;4150770;28;20046;-84
2022/09/09 06:35:53;;;;;;;8.05;4.07;;;14.90;99.90;;;;;;4161626;28;20038;-84
2022/09/09 06:37:53;;;;;;;7.75;4.30;;;15.00;99.90;;;;;;4167113;28;20124;-83
2022/09/09 06:39:54;;;;;;;12.35;4.80;;;15.00;99.90;;;;;;4159545;28;20030;-83
2022/09/09 06:41:55;;;;;;;11.18;5.03;;;15.00;99.90;;;;;;4161871;28;20045;-84
2022/09/09 06:43:56;;;;;;;7.93;4.78;;;15.00;99.90;;;;;;4150470;28;20045;-83
2022/09/09 06:45:59;;;;;;;8.95;4.85;;;15.00;99.90;;;;;;4149534;28;20056;-83
2022/09/09 06:48:00;;;;;;;12.00;4.40;;;15.00;99.90;;;;;;4150547;28;20049;-84
2022/09/09 06:50:01;;;;;;;6.97;4.20;;;15.10;99.90;;;;;;4150747;28;20038;-85
2022/09/09 06:52:02;;;;;;;8.07;4.25;;;15.10;99.90;;;;;;4150296;28;20041;-85
2022/09/09 06:54:04;;;;;;;10.13;3.88;;;15.10;99.90;;;;;;4149824;28;20096;-84
2022/09/09 06:56:11;;;;;;;10.93;4.15;;;15.20;99.90;;;;;;4151058;28;20049;-85
2022/09/09 06:58:11;;;;;;;7.60;4.50;;;15.20;99.90;;;;;;4150923;28;20510;-84
2022/09/09 07:00:13;;;;;;;8.38;4.40;;;15.20;99.90;;;;;;4154963;28;20097;-83
2022/09/09 07:02:14;;;;;;;9.98;4.20;;;15.20;99.90;;;;;;4145226;28;20045;-83
2022/09/09 07:04:15;;;;;;;10.48;4.13;;;15.20;99.90;;;;;;4165670;28;20095;-84
2022/09/09 07:06:21;;;;;;;8.93;3.83;;;15.30;99.90;;;;;;4153637;28;20169;-84
2022/09/09 07:08:24;;;;;;;6.25;3.88;;;15.30;99.90;;;;;;4150689;28;20042;-85
2022/09/09 07:10:25;;;;;;;8.40;4.07;;;15.40;99.90;;;;;;4150375;28;20119;-85
2022/09/09 07:12:26;;;;;;;9.60;3.90;;;15.40;99.90;;;;;;4150646;28;20054;-85
2022/09/09 07:14:27;;;;;;;7.15;3.83;;;15.50;99.90;;;;;;4132687;28;20053;-84
2022/09/09 07:16:29;;;;;;;8.30;3.50;;;15.50;99.90;;;;;;4150380;28;20050;-85
2022/09/09 07:18:30;;;;;;;7.97;3.50;;;15.50;99.90;;;;;;4162731;28;20049;-85
2022/09/09 07:20:31;;;;;;;6.35;4.03;;;15.60;99.90;;;;;;4151991;28;20514;-86
2022/09/09 07:22:33;;;;;;;6.60;3.97;;;15.50;99.90;;;;;;4165195;28;20156;-85
2022/09/09 07:24:35;;;;;;;8.00;4.25;;;15.70;99.90;;;;;;4140591;28;20100;-85
2022/09/09 07:26:36;;;;;;;6.43;4.13;;;15.60;99.90;;;;;;4148956;28;20172;-86
2022/09/09 07:28:38;;;;;;;8.05;3.92;;;15.60;99.90;;;;;;4148829;28;20046;-85
2022/09/09 07:30:39;;;;;;;7.95;3.75;;;15.60;99.90;;;;;;4148714;28;20085;-85
2022/09/09 07:32:40;;;;;;;8.32;3.92;;;15.60;99.90;;;;;;4148478;28;20064;-85
2022/09/09 07:34:41;;;;;;;7.07;3.80;;;15.70;99.90;;;;;;4130359;28;20677;-84
2022/09/09 07:36:42;;;;;;;6.57;3.40;;;15.70;99.90;;;;;;4147614;28;20069;-81
2022/09/09 07:38:51;;;;;;;6.88;3.80;;;15.80;99.90;;;;;;4148800;28;20573;-79
2022/09/09 07:40:52;;;;;;;9.73;4.00;;;15.80;99.90;;;;;;4149141;28;20107;-81
2022/09/09 07:42:53;;;;;;;8.00;3.50;;;15.80;99.90;;;;;;4147461;28;20049;-81
2022/09/09 07:44:54;;;;;;;6.70;3.75;;;15.90;99.90;;;;;;4146429;28;20120;-83
2022/09/09 07:46:55;;;;;;;8.25;3.60;;;15.90;99.90;;;;;;4148287;28;20058;-82
2022/09/09 07:48:57;;;;;;;5.05;3.45;;;15.90;99.90;;;;;;4147762;28;20047;-82
2022/09/09 07:51:11;;;;;;;7.30;3.65;;;16.00;99.90;;;;;;4130697;28;20546;-82
2022/09/09 07:53:12;;;;;;;6.97;3.55;;;16.00;99.90;;;;;;4148076;28;20054;-82
2022/09/09 07:55:12;;;;;;;6.10;3.58;;;16.10;99.90;;;;;;4130798;28;20547;-82
2022/09/09 07:57:15;;;;;;;6.35;3.80;;;16.20;99.90;;;;;;4146743;28;20085;-82
2022/09/09 07:59:16;;;;;;;10.43;4.32;;;16.20;99.90;;;;;;4146564;28;20125;-83
2022/09/09 08:01:32;;;;;;;6.75;3.90;;;16.30;99.90;;;;;;4148823;28;20842;-84
2022/09/09 08:03:33;;;;;;;8.60;3.80;;;16.40;99.90;;;;;;4149188;28;20491;-85
2022/09/09 08:05:34;;;;;;;9.15;3.75;;;16.50;99.90;;;;;;4149808;28;20049;-85
2022/09/09 08:07:35;;;;;;;5.45;2.83;;;16.50;99.90;;;;;;4143625;28;20378;-84
2022/09/09 08:09:36;;;;;;;4.88;3.20;;;16.60;99.90;;;;;;4133418;28;20496;-84
2022/09/09 08:11:39;;;;;;;6.93;3.15;;;16.60;99.90;;;;;;4133540;28;20072;-84
2022/09/09 08:13:40;;;;;;;8.05;3.80;;;16.70;99.90;;;;;;4115280;28;20122;-83
2022/09/09 08:15:43;;;;;;;7.95;3.20;;;16.70;99.90;;;;;;4140088;28;20046;-84
2022/09/09 08:17:44;;;;;;;7.95;3.28;;;16.70;99.90;;;;;;4149460;28;20042;-84
2022/09/09 08:19:45;;;;;;;6.57;3.47;;;16.80;99.90;;;;;;4149464;28;20396;-83
2022/09/09 08:21:46;;;;;;;4.18;2.85;;;16.90;99.90;;;;;;4132068;28;20050;-84
2022/09/09 08:23:49;;;;;;;7.38;3.00;;;17.00;99.90;;;;;;4150085;28;20116;-84
2022/09/09 08:25:50;;;;;;;6.18;3.05;;;17.10;99.90;;;;;;4159665;28;20183;-84
2022/09/09 08:27:53;;;;;;;7.07;3.35;;;17.20;99.90;;;;;;4134839;28;20058;-84
2022/09/09 08:29:53;;;;;;;5.22;2.70;;;17.30;99.90;;;;;;4115187;28;20524;-85
2022/09/09 08:31:57;;;;;;;10.20;3.42;;;16.90;99.90;;;;;;4162330;28;20048;-83
2022/09/09 08:33:59;;;;;;;5.43;3.05;;;17.40;99.90;;;;;;4165765;28;20127;-83
2022/09/09 08:36:01;;;;;;;6.65;3.28;;;17.40;99.90;;;;;;4147591;28;20060;-83
2022/09/09 08:38:02;;;;;;;7.55;2.70;;;17.50;99.90;;;;;;4164594;28;20049;-82
2022/09/09 08:40:08;;;;;;;5.63;2.90;;;17.50;99.90;;;;;;4165684;28;20487;-83
2022/09/09 08:42:33;;;;;;;4.88;3.15;;;17.70;99.90;;;;;;4148766;28;20057;-85
2022/09/09 08:44:34;;;;;;;7.10;2.70;;;18.00;99.90;;;;;;4118636;28;20074;-83
2022/09/09 08:46:42;;;;;;;7.38;3.22;;;18.20;99.90;;;;;;4119910;28;20125;-83
2022/09/09 08:49:06;;;;;;;3.92;2.15;;;18.50;99.90;;;;;;4118507;28;20074;-83
2022/09/09 08:51:08;;;;;;;5.50;2.72;;;18.80;99.90;;;;;;4136059;28;20038;-80
2022/09/09 08:53:20;;;;;;;6.03;3.05;;;18.90;99.90;;;;;;4136751;28;20141;-80
2022/09/09 08:55:48;;;;;;;5.50;3.33;;;18.80;99.90;;;;;;4149958;28;20057;-81
2022/09/09 08:57:53;;;;;;;4.65;2.20;;;18.80;99.90;;;;;;4135358;28;20104;-80
2022/09/09 08:59:56;;;;;;;4.78;2.55;;;19.00;99.90;;;;;;4135876;28;20117;-80
2022/09/09 09:02:05;;;;;;;5.53;2.42;;;19.20;99.90;;;;;;4134597;28;20403;-81
2022/09/09 09:04:32;;;;;;;4.32;2.13;;;19.60;99.90;;;;;;4132817;28;20054;-80
2022/09/09 09:06:59;;;;;;;4.22;2.28;;;19.90;99.90;;;;;;4135191;28;20046;-81
2022/09/09 09:09:00;;;;;;;4.53;2.42;;;20.00;99.90;;;;;;4134317;28;20085;-81
2022/09/09 09:11:02;;;;;;;4.90;2.47;;;19.80;99.90;;;;;;4136089;28;20400;-81
2022/09/09 09:13:03;;;;;;;4.78;2.20;;;19.70;99.90;;;;;;4136658;28;20444;-81
2022/09/09 09:15:16;;;;;;;6.38;2.47;;;19.80;99.90;;;;;;4132869;28;20098;-81
2022/09/09 09:17:20;;;;;;;6.97;2.17;;;19.50;99.90;;;;;;4133566;28;20053;-81
2022/09/09 09:19:23;;;;;;;12.65;3.17;;;19.30;99.90;;;;;;4135128;28;20051;-81
2022/09/09 09:21:41;;;;;;;6.13;2.60;;;19.00;99.90;;;;;;4133787;28;20050;-81
2022/09/09 09:23:53;;;;;;;6.75;2.50;;;18.80;99.90;;;;;;4134579;28;20069;-81
2022/09/09 09:25:59;;;;;;;3.65;2.28;;;18.70;99.90;;;;;;4134077;28;20050;-81
2022/09/09 09:28:17;;;;;;;5.13;3.00;;;18.60;99.90;;;;;;4130338;28;20149;-81
2022/09/09 09:30:24;;;;;;;4.88;2.22;;;18.50;99.90;;;;;;4133747;28;20480;-82
2022/09/09 09:32:30;;;;;;;5.10;2.72;;;18.40;99.90;;;;;;4134761;28;20050;-82
2022/09/09 09:34:30;;;;;;;5.28;2.70;;;18.50;99.90;;;;;;4133014;28;20050;-82
2022/09/09 09:36:41;;;;;;;7.85;2.47;;;18.60;99.90;;;;;;4134462;28;20502;-82
2022/09/09 09:39:00;;;;;;;5.22;2.22;;;18.60;99.90;;;;;;4134737;28;20416;-82
2022/09/09 09:41:02;;;;;;;6.00;2.53;;;18.60;99.90;;;;;;4134789;28;20408;-82
2022/09/09 09:43:09;;;;;;;5.80;2.70;;;18.70;99.90;;;;;;4133217;28;20542;-82
2022/09/09 09:45:44;;;;;;;3.85;2.33;;;18.70;99.90;;;;;;4139278;28;20065;-82
2022/09/09 09:47:45;;;;;;;5.65;2.95;;;18.70;99.90;;;;;;4130042;28;20054;-81
2022/09/09 09:49:59;;;;;;;5.35;2.03;;;18.60;99.90;;;;;;4149278;28;20038;-81
2022/09/09 09:52:02;;;;;;;8.90;2.17;;;18.60;99.90;;;;;;4149412;28;20561;-82
2022/09/09 09:54:15;;;;;;;8.50;2.58;;;18.60;99.90;;;;;;4149179;28;20053;-81
2022/09/09 09:56:16;;;;;;;4.35;2.10;;;18.60;99.90;;;;;;4150418;28;20128;-82
2022/09/09 09:58:17;;;;;;;4.07;1.92;;;18.60;99.90;;;;;;4149832;28;20045;-83
2022/09/09 10:00:22;;;;;;;4.22;2.05;;;18.60;99.90;;;;;;4132788;28;20558;-83
2022/09/09 10:02:26;;;;;;;6.10;2.10;;;18.80;99.90;;;;;;4150510;28;20052;-81
2022/09/09 10:04:27;;;;;;;4.65;1.67;;;18.90;99.90;;;;;;4149924;28;20041;-81
2022/09/09 10:06:37;;;;;;;9.40;2.30;;;19.30;99.90;;;;;;4148044;28;20125;-81
2022/09/09 10:08:48;;;;;;;7.72;2.95;;;19.50;99.90;;;;;;4147669;28;20053;-82
2022/09/09 10:11:01;;;;;;;11.30;2.65;;;19.50;99.90;;;;;;4148584;28;20872;-81
2022/09/09 10:13:25;;;;;;;3.50;1.60;;;19.50;99.90;;;;;;4148279;28;20576;-82
2022/09/09 10:15:57;;;;;;;7.68;2.20;;;19.40;99.90;;;;;;4140016;28;20053;-81
2022/09/09 10:18:31;;;;;;;4.22;1.67;;;19.50;99.90;;;;;;4147149;28;20038;-82
2022/09/09 10:21:00;;;;;;;8.48;1.88;;;19.50;99.90;;;;;;4147325;28;20119;-82
2022/09/09 10:23:42;;;;;;;6.38;1.63;;;19.50;99.90;;;;;;4148990;28;20046;-81
2022/09/09 10:26:10;;;;;;;10.80;1.70;;;19.60;99.90;;;;;;4137791;28;20050;-81
2022/09/09 10:28:30;;;;;;;8.40;1.50;;;19.70;99.90;;;;;;4149972;28;20060;-81
2022/09/09 10:31:04;;;;;;;9.73;2.38;;;19.70;99.90;;;;;;4148992;28;20095;-81
2022/09/09 10:33:13;;;;;;;12.75;1.80;;;19.60;99.90;;;;;;4149602;28;20042;-81
2022/09/09 10:35:30;;;;;;;5.35;1.75;;;19.50;99.90;;;;;;4150290;28;20513;-81
2022/09/09 10:37:46;;;;;;;7.25;2.15;;;19.50;99.90;;;;;;4149850;28;20052;-81
2022/09/09 10:39:47;;;;;;;7.80;1.90;;;19.40;99.90;;;;;;4149834;28;20046;-81
2022/09/09 10:42:14;;;;;;;6.75;1.60;;;19.40;99.90;;;;;;4131364;28;20046;-82
2022/09/09 10:44:28;;;;;;;6.20;2.45;;;19.50;99.90;;;;;;4132191;28;20195;-82
2022/09/09 10:46:49;;;;;;;7.20;1.63;;;19.40;99.90;;;;;;4149194;28;20108;-82
2022/09/09 10:49:05;;;;;;;9.52;1.77;;;19.40;99.90;;;;;;4149156;28;20412;-82
2022/09/09 10:51:32;;;;;;;4.93;1.85;;;19.30;99.90;;;;;;4148843;28;20107;-82
2022/09/09 10:53:45;;;;;;;3.70;1.48;;;19.20;99.90;;;;;;4150022;28;20050;-82
2022/09/09 10:55:53;;;;;;;5.13;1.35;;;19.30;99.90;;;;;;4149938;28;20042;-81